sensor_id;sensor_type;location;lat;lon;timestamp;temperature;humidity
53314;DHT22;39202;51.468;7.146;2022-09-09T00:04:26;30.50;39.00
53314;DHT22;39202;51.468;7.146;2022-09-09T00:09:29;30.50;39.00
53314;DHT22;39202;51.468;7.146;2022-09-09T00:14:43;30.50;39.10
53314;DHT22;39202;51.468;7.146;2022-09-09T00:19:53;30.50;39.10
53314;DHT22;39202;51.468;7.146;2022-09-09T00:25:05;30.50;39.00
53314;DHT22;39202;51.468;7.146;2022-09-09T00:30:18;30.40;39.00
53314;DHT22;39202;51.468;7.146;2022-09-09T00:35:25;30.50;39.70
53314;DHT22;39202;51.468;7.146;2022-09-09T00:40:31;30.50;39.10
53314;DHT22;39202;51.468;7.146;2022-09-09T00:45:53;30.40;39.00
53314;DHT22;39202;51.468;7.146;2022-09-09T00:51:02;30.40;39.00
53314;DHT22;39202;51.468;7.146;2022-09-09T00:56:13;30.40;39.10
53314;DHT22;39202;51.468;7.146;2022-09-09T01:01:16;30.60;39.20
53314;DHT22;39202;51.468;7.146;2022-09-09T01:06:24;30.40;39.00
53314;DHT22;39202;51.468;7.146;2022-09-09T01:11:33;30.40;39.10
53314;DHT22;39202;51.468;7.146;2022-09-09T01:16:40;30.40;39.10
53314;DHT22;39202;51.468;7.146;2022-09-09T01:21:52;30.40;39.10
53314;DHT22;39202;51.468;7.146;2022-09-09T01:26:57;30.40;39.80
53314;DHT22;39202;51.468;7.146;2022-09-09T01:32:01;30.30;39.00
53314;DHT22;39202;51.468;7.146;2022-09-09T01:37:06;30.40;39.10
53314;DHT22;39202;51.468;7.146;2022-09-09T01:42:13;30.40;39.10
53314;DHT22;39202;51.468;7.146;2022-09-09T01:47:16;30.30;39.10
53314;DHT22;39202;51.468;7.146;2022-09-09T01:52:18;30.40;39.10
53314;DHT22;39202;51.468;7.146;2022-09-09T01:57:24;30.40;39.10
53314;DHT22;39202;51.468;7.146;2022-09-09T02:02:32;30.30;39.10
53314;DHT22;39202;51.468;7.146;2022-09-09T02:07:39;30.30;39.10
53314;DHT22;39202;51.468;7.146;2022-09-09T02:12:45;30.30;39.10
53314;DHT22;39202;51.468;7.146;2022-09-09T02:17:50;30.30;39.10
53314;DHT22;39202;51.468;7.146;2022-09-09T02:22:53;30.30;39.10
53314;DHT22;39202;51.468;7.146;2022-09-09T02:27:58;30.30;39.10
53314;DHT22;39202;51.468;7.146;2022-09-09T02:33:02;30.30;39.10
53314;DHT22;39202;51.468;7.146;2022-09-09T02:38:10;30.30;39.10
53314;DHT22;39202;51.468;7.146;2022-09-09T02:43:15;30.30;39.10
53314;DHT22;39202;51.468;7.146;2022-09-09T02:48:20;30.30;39.20
53314;DHT22;39202;51.468;7.146;2022-09-09T02:53:29;30.30;39.10
53314;DHT22;39202;51.468;7.146;2022-09-09T02:58:34;30.30;39.10
53314;DHT22;39202;51.468;7.146;2022-09-09T03:03:36;30.30;39.10
53314;DHT22;39202;51.468;7.146;2022-09-09T03:08:38;30.30;39.10
53314;DHT22;39202;51.468;7.146;2022-09-09T03:13:41;30.30;39.20
53314;DHT22;39202;51.468;7.146;2022-09-09T03:18:43;30.20;39.10
53314;DHT22;39202;51.468;7.146;2022-09-09T03:23:46;30.30;39.20
53314;DHT22;39202;51.468;7.146;2022-09-09T03:28:49;30.20;39.20
53314;DHT22;39202;51.468;7.146;2022-09-09T03:33:52;30.20;39.10
53314;DHT22;39202;51.468;7.146;2022-09-09T03:38:53;30.20;39.10
53314;DHT22;39202;51.468;7.146;2022-09-09T03:43:56;30.30;39.20
53314;DHT22;39202;51.468;7.146;2022-09-09T03:48:58;30.20;39.20
53314;DHT22;39202;51.468;7.146;2022-09-09T03:54:00;30.20;39.20
53314;DHT22;39202;51.468;7.146;2022-09-09T03:59:03;30.20;39.20
53314;DHT22;39202;51.468;7.146;2022-09-09T04:04:05;30.20;39.20
53314;DHT22;39202;51.468;7.146;2022-09-09T04:09:06;30.20;39.20
53314;DHT22;39202;51.468;7.146;2022-09-09T04:14:09;30.20;39.20
53314;DHT22;39202;51.468;7.146;2022-09-09T04:19:11;30.20;39.20
53314;DHT22;39202;51.468;7.146;2022-09-09T04:24:14;30.20;39.20
53314;DHT22;39202;51.468;7.146;2022-09-09T04:29:18;30.20;39.20
53314;DHT22;39202;51.468;7.146;2022-09-09T04:34:19;30.20;39.20
53314;DHT22;39202;51.468;7.146;2022-09-09T04:39:21;30.20;39.20
53314;DHT22;39202;51.468;7.146;2022-09-09T04:44:24;30.10;39.10
53314;DHT22;39202;51.468;7.146;2022-09-09T04:49:26;30.10;39.20
53314;DHT22;39202;51.468;7.146;2022-09-09T04:54:27;30.10;39.20
53314;DHT22;39202;51.468;7.146;2022-09-09T04:59:31;30.10;39.20
53314;DHT22;39202;51.468;7.146;2022-09-09T05:04:32;30.10;39.10
53314;DHT22;39202;51.468;7.146;2022-09-09T05:09:34;30.10;39.20
53314;DHT22;39202;51.468;7.146;2022-09-09T05:14:37;30.10;39.20
53314;DHT22;39202;51.468;7.146;2022-09-09T05:19:39;30.10;39.20
53314;DHT22;39202;51.468;7.146;2022-09-09T05:24:40;30.10;39.20
53314;DHT22;39202;51.468;7.146;2022-09-09T05:29:43;30.10;39.20
53314;DHT22;39202;51.468;7.146;2022-09-09T05:34:45;30.10;39.20
53314;DHT22;39202;51.468;7.146;2022-09-09T05:39:47;30.10;39.20
53314;DHT22;39202;51.468;7.146;2022-09-09T05:44:50;30.10;39.20
53314;DHT22;39202;51.468;7.146;2022-09-09T05:49:55;30.10;39.20
53314;DHT22;39202;51.468;7.146;2022-09-09T05:54:56;30.10;39.20
53314;DHT22;39202;51.468;7.146;2022-09-09T06:00:01;30.10;39.20
53314;DHT22;39202;51.468;7.146;2022-09-09T06:05:03;30.10;39.20
53314;DHT22;39202;51.468;7.146;2022-09-09T06:10:06;30.10;39.20
53314;DHT22;39202;51.468;7.146;2022-09-09T06:15:10;30.10;39.20
53314;DHT22;39202;51.468;7.146;2022-09-09T06:20:12;30.10;39.20
53314;DHT22;39202;51.468;7.146;2022-09-09T06:25:14;30.10;39.20
53314;DHT22;39202;51.468;7.146;2022-09-09T06:30:17;30.10;39.20
53314;DHT22;39202;51.468;7.146;2022-09-09T06:35:19;30.10;39.20
53314;DHT22;39202;51.468;7.146;2022-09-09T06:40:21;30.10;39.10
53314;DHT22;39202;51.468;7.146;2022-09-09T06:45:24;30.10;39.10
53314;DHT22;39202;51.468;7.146;2022-09-09T06:50:26;30.10;39.20
53314;DHT22;39202;51.468;7.146;2022-09-09T06:55:27;30.10;39.20
53314;DHT22;39202;51.468;7.146;2022-09-09T07:00:30;30.10;39.20
53314;DHT22;39202;51.468;7.146;2022-09-09T07:05:32;30.10;39.20
53314;DHT22;39202;51.468;7.146;2022-09-09T07:10:34;30.10;39.20
53314;DHT22;39202;51.468;7.146;2022-09-09T07:15:37;30.10;39.20
53314;DHT22;39202;51.468;7.146;2022-09-09T07:20:39;30.10;39.30
53314;DHT22;39202;51.468;7.146;2022-09-09T07:25:44;30.10;39.40
53314;DHT22;39202;51.468;7.146;2022-09-09T07:30:54;30.20;39.40
53314;DHT22;39202;51.468;7.146;2022-09-09T07:36:03;30.30;39.40
53314;DHT22;39202;51.468;7.146;2022-09-09T07:41:07;30.30;39.30
53314;DHT22;39202;51.468;7.146;2022-09-09T07:46:14;30.40;39.30
53314;DHT22;39202;51.468;7.146;2022-09-09T07:51:18;30.40;39.30
53314;DHT22;39202;51.468;7.146;2022-09-09T07:56:20;30.50;39.30
53314;DHT22;39202;51.468;7.146;2022-09-09T08:01:27;30.60;39.30
53314;DHT22;39202;51.468;7.146;2022-09-09T08:06:32;30.60;39.20
53314;DHT22;39202;51.468;7.146;2022-09-09T08:11:34;30.70;39.20
53314;DHT22;39202;51.468;7.146;2022-09-09T08:16:40;30.70;39.10
53314;DHT22;39202;51.468;7.146;2022-09-09T08:21:43;30.80;39.10
53314;DHT22;39202;51.468;7.146;2022-09-09T08:26:46;30.80;39.00
53314;DHT22;39202;51.468;7.146;2022-09-09T08:31:51;30.90;39.00
53314;DHT22;39202;51.468;7.146;2022-09-09T08:36:54;31.00;39.00
53314;DHT22;39202;51.468;7.146;2022-09-09T08:47:42;31.00;38.80
53314;DHT22;39202;51.468;7.146;2022-09-09T08:52:53;31.10;38.80
53314;DHT22;39202;51.468;7.146;2022-09-09T08:57:57;31.10;38.70
53314;DHT22;39202;51.468;7.146;2022-09-09T09:03:06;31.20;38.80
53314;DHT22;39202;51.468;7.146;2022-09-09T09:08:20;31.20;38.60
53314;DHT22;39202;51.468;7.146;2022-09-09T09:13:31;31.20;38.50
53314;DHT22;39202;51.468;7.146;2022-09-09T09:18:38;31.20;38.50
53314;DHT22;39202;51.468;7.146;2022-09-09T09:23:43;31.20;38.60
53314;DHT22;39202;51.468;7.146;2022-09-09T09:28:46;31.30;39.30
53314;DHT22;39202;51.468;7.146;2022-09-09T09:33:51;31.30;38.60
53314;DHT22;39202;51.468;7.146;2022-09-09T09:38:55;31.30;38.60
53314;DHT22;39202;51.468;7.146;2022-09-09T09:43:58;31.40;38.60
53314;DHT22;39202;51.468;7.146;2022-09-09T09:49:04;31.40;38.50
53314;DHT22;39202;51.468;7.146;2022-09-09T09:54:14;31.50;38.40
53314;DHT22;39202;51.468;7.146;2022-09-09T09:59:21;31.50;38.40
53314;DHT22;39202;51.468;7.146;2022-09-09T10:04:24;31.50;38.30
53314;DHT22;39202;51.468;7.146;2022-09-09T10:09:28;31.50;38.20
53314;DHT22;39202;51.468;7.146;2022-09-09T10:14:38;31.50;38.20
53314;DHT22;39202;51.468;7.146;2022-09-09T10:19:54;31.40;38.20
53314;DHT22;39202;51.468;7.146;2022-09-09T10:25:27;31.40;38.20
53314;DHT22;39202;51.468;7.146;2022-09-09T10:30:38;31.30;38.20
53314;DHT22;39202;51.468;7.146;2022-09-09T10:35:47;31.30;38.40
53314;DHT22;39202;51.468;7.146;2022-09-09T10:41:15;31.30;38.40
53314;DHT22;39202;51.468;7.146;2022-09-09T10:46:23;31.40;38.40
53314;DHT22;39202;51.468;7.146;2022-09-09T10:51:36;31.40;38.30
53314;DHT22;39202;51.468;7.146;2022-09-09T10:56:42;31.40;38.30
53314;DHT22;39202;51.468;7.146;2022-09-09T11:01:48;31.40;38.20
53314;DHT22;39202;51.468;7.146;2022-09-09T11:06:55;31.50;38.20
53314;DHT22;39202;51.468;7.146;2022-09-09T11:11:58;31.50;38.20
53314;DHT22;39202;51.468;7.146;2022-09-09T11:17:06;31.40;38.20
53314;DHT22;39202;51.468;7.146;2022-09-09T11:22:17;31.30;38.40
53314;DHT22;39202;51.468;7.146;2022-09-09T11:27:22;31.30;38.00
53314;DHT22;39202;51.468;7.146;2022-09-09T11:32:44;31.20;37.70
53314;DHT22;39202;51.468;7.146;2022-09-09T11:38:15;31.10;37.40
53314;DHT22;39202;51.468;7.146;2022-09-09T11:43:23;31.10;37.70
53314;DHT22;39202;51.468;7.146;2022-09-09T11:48:31;31.00;38.10
53314;DHT22;39202;51.468;7.146;2022-09-09T11:53:46;30.90;38.00
53314;DHT22;39202;51.468;7.146;2022-09-09T11:58:55;30.80;38.20
53314;DHT22;39202;51.468;7.146;2022-09-09T12:04:17;30.80;38.10
53314;DHT22;39202;51.468;7.146;2022-09-09T12:09:27;30.80;37.80
53314;DHT22;39202;51.468;7.146;2022-09-09T12:14:36;30.70;37.90
53314;DHT22;39202;51.468;7.146;2022-09-09T12:19:39;30.60;38.20
53314;DHT22;39202;51.468;7.146;2022-09-09T12:24:47;30.60;38.40
53314;DHT22;39202;51.468;7.146;2022-09-09T12:29:57;30.60;38.60
53314;DHT22;39202;51.468;7.146;2022-09-09T12:35:04;30.60;38.60
53314;DHT22;39202;51.468;7.146;2022-09-09T12:40:21;30.50;38.30
53314;DHT22;39202;51.468;7.146;2022-09-09T12:45:26;30.40;38.50
53314;DHT22;39202;51.468;7.146;2022-09-09T12:50:30;30.40;38.70
53314;DHT22;39202;51.468;7.146;2022-09-09T12:55:36;30.30;38.80
53314;DHT22;39202;51.468;7.146;2022-09-09T13:00:48;30.30;38.70
53314;DHT22;39202;51.468;7.146;2022-09-09T13:05:53;30.20;38.90
53314;DHT22;39202;51.468;7.146;2022-09-09T13:10:58;30.20;39.00
53314;DHT22;39202;51.468;7.146;2022-09-09T13:16:04;30.20;39.00
53314;DHT22;39202;51.468;7.146;2022-09-09T13:21:08;30.10;38.90
53314;DHT22;39202;51.468;7.146;2022-09-09T13:26:23;30.00;38.70
53314;DHT22;39202;51.468;7.146;2022-09-09T13:31:28;29.90;38.90
53314;DHT22;39202;51.468;7.146;2022-09-09T13:36:32;29.80;39.00
53314;DHT22;39202;51.468;7.146;2022-09-09T13:41:42;29.70;39.20
53314;DHT22;39202;51.468;7.146;2022-09-09T13:46:45;29.60;39.40
53314;DHT22;39202;51.468;7.146;2022-09-09T13:51:48;29.60;39.60
53314;DHT22;39202;51.468;7.146;2022-09-09T13:56:52;29.60;39.80
53314;DHT22;39202;51.468;7.146;2022-09-09T14:01:55;29.70;40.00
53314;DHT22;39202;51.468;7.146;2022-09-09T14:06:57;29.80;40.00
53314;DHT22;39202;51.468;7.146;2022-09-09T14:12:01;29.80;40.00
53314;DHT22;39202;51.468;7.146;2022-09-09T14:17:03;29.90;40.10
53314;DHT22;39202;51.468;7.146;2022-09-09T14:22:05;30.00;40.00
53314;DHT22;39202;51.468;7.146;2022-09-09T14:27:08;30.00;40.00
53314;DHT22;39202;51.468;7.146;2022-09-09T14:32:10;30.10;40.00
53314;DHT22;39202;51.468;7.146;2022-09-09T14:37:12;30.20;40.00
53314;DHT22;39202;51.468;7.146;2022-09-09T14:42:15;30.20;39.90
53314;DHT22;39202;51.468;7.146;2022-09-09T14:47:17;30.30;39.90
53314;DHT22;39202;51.468;7.146;2022-09-09T14:52:18;30.30;39.80
53314;DHT22;39202;51.468;7.146;2022-09-09T14:57:22;30.40;39.80
53314;DHT22;39202;51.468;7.146;2022-09-09T15:02:24;30.40;39.80
53314;DHT22;39202;51.468;7.146;2022-09-09T15:07:26;30.40;39.70
53314;DHT22;39202;51.468;7.146;2022-09-09T15:12:30;30.40;39.70
53314;DHT22;39202;51.468;7.146;2022-09-09T15:17:32;30.50;39.70
53314;DHT22;39202;51.468;7.146;2022-09-09T15:22:33;30.50;39.70
53314;DHT22;39202;51.468;7.146;2022-09-09T15:27:38;30.50;39.70
53314;DHT22;39202;51.468;7.146;2022-09-09T15:32:40;30.50;39.70
53314;DHT22;39202;51.468;7.146;2022-09-09T15:37:42;30.70;39.90
53314;DHT22;39202;51.468;7.146;2022-09-09T15:42:46;30.50;39.70
53314;DHT22;39202;51.468;7.146;2022-09-09T15:47:48;30.50;39.70
53314;DHT22;39202;51.468;7.146;2022-09-09T15:52:49;30.50;39.70
53314;DHT22;39202;51.468;7.146;2022-09-09T15:57:54;30.50;39.70
53314;DHT22;39202;51.468;7.146;2022-09-09T16:02:58;30.50;39.70
53314;DHT22;39202;51.468;7.146;2022-09-09T16:08:00;30.50;39.70
53314;DHT22;39202;51.468;7.146;2022-09-09T16:13:03;30.50;39.70
53314;DHT22;39202;51.468;7.146;2022-09-09T16:18:04;30.50;39.70
53314;DHT22;39202;51.468;7.146;2022-09-09T16:23:06;30.50;39.70
53314;DHT22;39202;51.468;7.146;2022-09-09T16:28:09;30.50;39.70
53314;DHT22;39202;51.468;7.146;2022-09-09T16:33:11;30.50;39.70
53314;DHT22;39202;51.468;7.146;2022-09-09T16:38:14;30.40;39.60
53314;DHT22;39202;51.468;7.146;2022-09-09T16:43:18;30.50;39.70
53314;DHT22;39202;51.468;7.146;2022-09-09T16:48:20;30.40;39.60
53314;DHT22;39202;51.468;7.146;2022-09-09T16:53:21;30.50;39.60
53314;DHT22;39202;51.468;7.146;2022-09-09T16:58:24;30.50;39.60
53314;DHT22;39202;51.468;7.146;2022-09-09T17:03:26;30.40;39.60
53314;DHT22;39202;51.468;7.146;2022-09-09T17:08:28;30.50;39.60
53314;DHT22;39202;51.468;7.146;2022-09-09T17:13:33;30.50;39.60
53314;DHT22;39202;51.468;7.146;2022-09-09T17:18:35;30.40;39.60
53314;DHT22;39202;51.468;7.146;2022-09-09T17:23:37;30.40;39.50
53314;DHT22;39202;51.468;7.146;2022-09-09T17:28:41;30.40;39.50
53314;DHT22;39202;51.468;7.146;2022-09-09T17:33:44;30.40;39.50
53314;DHT22;39202;51.468;7.146;2022-09-09T17:38:46;30.40;39.50
53314;DHT22;39202;51.468;7.146;2022-09-09T17:43:50;30.40;39.60
53314;DHT22;39202;51.468;7.146;2022-09-09T17:48:55;30.40;39.60
53314;DHT22;39202;51.468;7.146;2022-09-09T17:53:59;30.40;39.50
53314;DHT22;39202;51.468;7.146;2022-09-09T17:59:04;30.40;39.60
53314;DHT22;39202;51.468;7.146;2022-09-09T18:04:08;30.30;39.50
53314;DHT22;39202;51.468;7.146;2022-09-09T18:09:11;30.30;39.50
53314;DHT22;39202;51.468;7.146;2022-09-09T18:14:16;30.30;39.50
53314;DHT22;39202;51.468;7.146;2022-09-09T18:19:20;30.30;39.50
53314;DHT22;39202;51.468;7.146;2022-09-09T18:24:22;30.40;39.50
53314;DHT22;39202;51.468;7.146;2022-09-09T18:29:26;30.30;39.40
53314;DHT22;39202;51.468;7.146;2022-09-09T18:34:27;30.30;39.50
53314;DHT22;39202;51.468;7.146;2022-09-09T18:39:30;30.30;39.50
53314;DHT22;39202;51.468;7.146;2022-09-09T18:44:34;30.30;39.50
53314;DHT22;39202;51.468;7.146;2022-09-09T18:49:35;30.30;39.50
53314;DHT22;39202;51.468;7.146;2022-09-09T18:54:37;30.20;39.40
53314;DHT22;39202;51.468;7.146;2022-09-09T18:59:42;30.30;39.50
53314;DHT22;39202;51.468;7.146;2022-09-09T19:04:43;30.20;39.50
53314;DHT22;39202;51.468;7.146;2022-09-09T19:09:45;30.20;39.50
53314;DHT22;39202;51.468;7.146;2022-09-09T19:14:49;30.20;39.50
53314;DHT22;39202;51.468;7.146;2022-09-09T19:19:50;30.20;39.40
53314;DHT22;39202;51.468;7.146;2022-09-09T19:24:54;30.20;39.40
53314;DHT22;39202;51.468;7.146;2022-09-09T19:29:59;30.20;39.50
53314;DHT22;39202;51.468;7.146;2022-09-09T19:35:01;30.20;39.50
53314;DHT22;39202;51.468;7.146;2022-09-09T19:40:04;30.20;39.50
53314;DHT22;39202;51.468;7.146;2022-09-09T19:45:08;30.20;39.60
53314;DHT22;39202;51.468;7.146;2022-09-09T19:50:11;30.20;39.60
53314;DHT22;39202;51.468;7.146;2022-09-09T19:55:13;30.10;39.50
53314;DHT22;39202;51.468;7.146;2022-09-09T20:00:16;30.10;39.50
53314;DHT22;39202;51.468;7.146;2022-09-09T20:05:18;30.10;39.50
53314;DHT22;39202;51.468;7.146;2022-09-09T20:10:20;30.10;39.60
53314;DHT22;39202;51.468;7.146;2022-09-09T20:15:24;30.10;39.60
53314;DHT22;39202;51.468;7.146;2022-09-09T20:20:26;30.10;39.60
53314;DHT22;39202;51.468;7.146;2022-09-09T20:25:28;30.10;39.60
53314;DHT22;39202;51.468;7.146;2022-09-09T20:30:31;30.10;39.60
53314;DHT22;39202;51.468;7.146;2022-09-09T20:35:37;30.10;39.60
53314;DHT22;39202;51.468;7.146;2022-09-09T20:40:39;30.10;39.60
53314;DHT22;39202;51.468;7.146;2022-09-09T20:45:43;30.10;39.60
53314;DHT22;39202;51.468;7.146;2022-09-09T20:50:45;30.10;39.60
53314;DHT22;39202;51.468;7.146;2022-09-09T20:55:46;30.10;39.60
53314;DHT22;39202;51.468;7.146;2022-09-09T21:00:51;30.10;39.70
53314;DHT22;39202;51.468;7.146;2022-09-09T21:05:59;30.10;39.70
53314;DHT22;39202;51.468;7.146;2022-09-09T21:11:01;30.00;39.60
53314;DHT22;39202;51.468;7.146;2022-09-09T21:16:05;30.00;39.70
53314;DHT22;39202;51.468;7.146;2022-09-09T21:21:07;30.00;39.70
53314;DHT22;39202;51.468;7.146;2022-09-09T21:26:09;30.00;40.30
53314;DHT22;39202;51.468;7.146;2022-09-09T21:31:14;30.00;39.70
53314;DHT22;39202;51.468;7.146;2022-09-09T21:36:16;30.00;39.70
53314;DHT22;39202;51.468;7.146;2022-09-09T21:41:17;30.00;39.70
53314;DHT22;39202;51.468;7.146;2022-09-09T21:46:21;30.00;39.70
53314;DHT22;39202;51.468;7.146;2022-09-09T21:51:25;30.00;39.70
53314;DHT22;39202;51.468;7.146;2022-09-09T21:56:27;30.00;39.70
53314;DHT22;39202;51.468;7.146;2022-09-09T22:01:30;30.00;39.70
53314;DHT22;39202;51.468;7.146;2022-09-09T22:06:33;30.00;39.70
53314;DHT22;39202;51.468;7.146;2022-09-09T22:11:35;29.90;39.60
53314;DHT22;39202;51.468;7.146;2022-09-09T22:16:38;29.90;39.70
53314;DHT22;39202;51.468;7.146;2022-09-09T22:21:40;29.90;39.70
53314;DHT22;39202;51.468;7.146;2022-09-09T22:26:42;30.00;39.80
53314;DHT22;39202;51.468;7.146;2022-09-09T22:31:45;29.90;39.70
53314;DHT22;39202;51.468;7.146;2022-09-09T22:36:46;29.90;39.70
53314;DHT22;39202;51.468;7.146;2022-09-09T22:41:49;29.90;39.80
53314;DHT22;39202;51.468;7.146;2022-09-09T22:46:53;29.90;39.80
53314;DHT22;39202;51.468;7.146;2022-09-09T22:51:55;29.90;39.80
53314;DHT22;39202;51.468;7.146;2022-09-09T22:56:57;29.90;39.80
53314;DHT22;39202;51.468;7.146;2022-09-09T23:02:00;29.90;39.80
53314;DHT22;39202;51.468;7.146;2022-09-09T23:07:02;29.90;39.80
53314;DHT22;39202;51.468;7.146;2022-09-09T23:12:04;29.80;39.70
53314;DHT22;39202;51.468;7.146;2022-09-09T23:17:10;29.90;39.80
53314;DHT22;39202;51.468;7.146;2022-09-09T23:22:17;29.80;39.80
53314;DHT22;39202;51.468;7.146;2022-09-09T23:27:20;29.90;39.80
53314;DHT22;39202;51.468;7.146;2022-09-09T23:32:23;29.80;39.80
53314;DHT22;39202;51.468;7.146;2022-09-09T23:37:25;29.80;39.80
53314;DHT22;39202;51.468;7.146;2022-09-09T23:42:27;29.80;39.80
53314;DHT22;39202;51.468;7.146;2022-09-09T23:47:34;29.80;39.80
53314;DHT22;39202;51.468;7.146;2022-09-09T23:52:35;29.80;39.90
53314;DHT22;39202;51.468;7.146;2022-09-09T23:57:40;29.80;39.90
